• Join FlightAware (Why Join?)
  • Login
  • US Flag 
04:45AM EDT


 

Airport Tracker/Info


-or-


 

Live Flight TrackerFlight Track Log ✈ RPA3253 ✈ 28-Jun-2013 ✈ KCLT - KMSY

Flight Track Log - Related Links

Times and Time Zones

All times are in EDT time to prevent confusion due to time zone crossing. See the RPA3253 flight status page for this flight to view local times or setup timezone preferences in your user account.

Time Position Orientation Groundspeed Altitude Reporting Facility
EDT Latitude Longitude Course Direction KTS MPH feet Rate Location/Type
12:18AM 35.1933 -80.9533 184° South 162 186 1,500  Level Atlanta Center
12:19AM 35.1267 -80.9583 184° South 225 259 3,300 1,980 Climbing Atlanta Center
12:20AM 35.0650 -80.9886 202° Southwest 284 327 5,800 2,880 Climbing Atlanta Center
12:21AM 34.9925 -81.0192 199° South 291 335 8,900 3,120 Climbing Atlanta Center
12:22AM 34.9031 -81.0250 183° South 290 334 13,000 2,700 Climbing Atlanta Center
12:23AM 34.8325 -81.0375 188° South 273 314 15,100 1,980 Climbing Atlanta Center
12:26AM 34.6267 -81.0886 192° South 314 361 20,000 1,860 Climbing Jacksonville Center
12:27AM 34.5353 -81.1106 191° South 334 384 21,700 1,500 Climbing Jacksonville Center
12:28AM 34.4292 -81.1356 191° South 346 398 23,000 600 Climbing Jacksonville Center
12:29AM 34.3314 -81.1575 190° South 357 411 23,000 480 Level Jacksonville Center
12:30AM 34.2378 -81.1769 190° South 357 411 24,000 1,200 Climbing Jacksonville Center
12:31AM 34.1317 -81.2017 191° South 357 411 25,500 1,500 Climbing Jacksonville Center
12:32AM 34.0300 -81.2236 190° South 365 420 27,000 1,380 Climbing Jacksonville Center
12:33AM 33.9389 -81.2806 207° Southwest 373 429 28,300 1,260 Climbing Jacksonville Center
12:34AM 33.8542 -81.3622 219° Southwest 367 422 29,600 1,200 Climbing Jacksonville Center
12:35AM 33.7717 -81.4408 218° Southwest 386 444 30,700 1,140 Climbing Jacksonville Center
12:36AM 33.6236 -81.5817 218° Southwest 387 445 33,000 1,080 Climbing Atlanta Center
12:37AM 33.5417 -81.6586 218° Southwest 387 445 34,000 480 Climbing Atlanta Center
12:38AM 33.4575 -81.7356 217° Southwest 387 445 34,000  Level Atlanta Center
12:39AM 33.3756 -81.8150 219° Southwest 387 445 34,000  Level Atlanta Center
12:40AM 33.2933 -81.8917 218° Southwest 387 445 34,000  Level Atlanta Center
12:41AM 33.2111 -81.9706 219° Southwest 387 445 34,000  Level Atlanta Center
12:42AM 33.1289 -82.0469 218° Southwest 387 445 34,000  Level Atlanta Center
12:43AM 33.0447 -82.1258 218° Southwest 387 445 34,000  Level Atlanta Center
12:44AM 32.9603 -82.2042 218° Southwest 387 445 34,000  Level Atlanta Center
12:45AM 32.8778 -82.2828 219° Southwest 387 445 34,000  Level Atlanta Center
12:46AM 32.7933 -82.3633 219° Southwest 392 451 34,000  Level Atlanta Center
12:47AM 32.7067 -82.4392 216° Southwest 387 445 34,000  Level Atlanta Center
12:48AM 32.6222 -82.5197 219° Southwest 387 445 34,000 420 Level Atlanta Center
12:49AM 32.5333 -82.6000 217° Southwest 397 457 34,900 480 Climbing Atlanta Center
12:50AM 32.4383 -82.6903 219° Southwest 397 457 35,000  Climbing Atlanta Center
12:51AM 32.3517 -82.7703 218° Southwest 402 463 35,000  Level Atlanta Center
12:52AM 32.2647 -82.8475 217° Southwest 402 463 35,000  Level Atlanta Center
12:53AM 32.1800 -82.9247 218° Southwest 396 456 35,000  Level Atlanta Center
12:54AM 32.0931 -83.0067 219° Southwest 396 456 35,000  Level Atlanta Center
12:56AM 31.9847 -83.1033 217° Southwest 392 451 35,100 300 Climbing Jacksonville Center
12:57AM 31.8969 -83.1814 217° Southwest 392 451 35,700 420 Climbing Jacksonville Center
12:58AM 31.8069 -83.2617 217° Southwest 397 457 36,000 120 Climbing Jacksonville Center
12:59AM 31.7169 -83.3444 218° Southwest 403 464 36,000  Level Jacksonville Center
01:00AM 31.6267 -83.4219 216° Southwest 408 470 36,000  Level Jacksonville Center
01:01AM 31.5367 -83.5044 218° Southwest 414 476 36,000  Level Jacksonville Center
01:02AM 31.4358 -83.5939 217° Southwest 419 482 36,000  Level Jacksonville Center
01:03AM 31.3456 -83.6758 218° Southwest 414 476 36,000  Level Jacksonville Center
01:04AM 31.2533 -83.7578 217° Southwest 414 476 36,000  Level Jacksonville Center
01:05AM 31.1628 -83.8394 218° Southwest 414 476 36,000  Level Jacksonville Center
01:06AM 31.0725 -83.9211 218° Southwest 414 476 36,000  Level Jacksonville Center
01:07AM 30.9800 -84.0025 217° Southwest 414 476 36,000  Level Jacksonville Center
01:08AM 30.8872 -84.0836 217° Southwest 414 476 36,000  Level Jacksonville Center
01:09AM 30.7947 -84.1622 216° Southwest 419 482 36,000  Level Jacksonville Center
01:10AM 30.7019 -84.2456 218° Southwest 419 482 36,000  Level Jacksonville Center
01:11AM 30.6114 -84.3264 218° Southwest 419 482 36,000  Level Jacksonville Center
01:12AM 30.5578 -84.4364 241° Southwest 403 464 36,000  Level Jacksonville Center
01:13AM 30.5647 -84.5572 274° West 375 432 36,000  Level Jacksonville Center
01:14AM 30.5733 -84.6853 274° West 392 451 36,000  Level Jacksonville Center
01:15AM 30.5756 -84.8156 271° West 402 463 36,000  Level Jacksonville Center
01:16AM 30.5672 -84.9458 266° West 407 468 36,000  Level Jacksonville Center
01:17AM 30.5547 -85.0781 264° West 407 468 36,000 -300 Level Jacksonville Center
01:18AM 30.5442 -85.2056 265° West 407 468 35,400 -900 Descending Jacksonville Center
01:19AM 30.5314 -85.3331 263° West 407 468 34,200 -1,500 Descending Jacksonville Center
01:20AM 30.5158 -85.4750 263° West 407 468 32,400 -1,740 Descending Jacksonville Center
01:21AM 30.4842 -85.6019 254° West 407 468 30,800 -1,740 Descending Jacksonville Center
01:22AM 30.4564 -85.7289 256° West 412 474 29,000 -1,740 Descending Jacksonville Center
01:23AM 30.4286 -85.8461 255° West 406 467 27,400 -1,380 Descending Jacksonville Center
01:24AM 30.4028 -85.9608 255° West 388 447 26,300 -720 Descending Jacksonville Center
01:25AM 30.3772 -86.0731 255° West 372 428 26,000 -180 Descending Jacksonville Center
01:26AM 30.3533 -86.1881 256° West 367 422 26,000  Level Jacksonville Center
01:27AM 30.3275 -86.3000 255° West 367 422 26,000  Level Jacksonville Center
01:28AM 30.3033 -86.4147 256° West 372 428 26,000  Level Jacksonville Center
01:29AM 30.2897 -86.5322 262° West 372 428 26,000  Level Jacksonville Center
01:30AM 30.2842 -86.6497 267° West 367 422 26,000  Level Jacksonville Center
01:31AM 30.2767 -86.7625 266° West 367 422 26,000  Level Jacksonville Center
01:32AM 30.2647 -86.8797 263° West 367 422 26,000  Level Jacksonville Center
01:33AM 30.2589 -86.9997 267° West 367 422 26,000  Level Jacksonville Center
01:34AM 30.2461 -87.2044 266° West 368 423 26,000  Level Houston Center
01:36AM 30.2356 -87.3258 264° West 376 433 26,000  Level Houston Center
01:37AM 30.2289 -87.4453 266° West 375 432 26,000  Level Houston Center
01:38AM 30.2197 -87.5639 265° West 372 428 26,000  Level Houston Center
01:39AM 30.2103 -87.6811 265° West 368 423 26,000  Level Houston Center
01:40AM 30.2019 -87.8006 265° West 371 427 26,000  Level Houston Center
01:41AM 30.1925 -87.9206 265° West 373 429 26,000  Level Houston Center
01:42AM 30.1831 -88.0408 265° West 375 432 26,000  Level Houston Center
01:43AM 30.1731 -88.1611 265° West 376 433 26,000  Level Houston Center
01:44AM 30.1636 -88.2803 265° West 374 430 26,000  Level Houston Center
01:45AM 30.1539 -88.4000 265° West 373 429 26,000  Level Houston Center
01:46AM 30.1447 -88.5178 265° West 368 423 26,000  Level Houston Center
01:47AM 30.1342 -88.6372 264° West 372 428 26,000 -540 Level Houston Center
01:48AM 30.1267 -88.7425 265° West 373 429 25,000 -1,500 Descending Houston Center
01:49AM 30.1178 -88.8581 265° West 363 418 23,100 -1,860 Descending Houston Center
01:50AM 30.1081 -88.9669 264° West 345 397 21,300 -1,800 Descending Houston Center
01:51AM 30.0992 -89.0742 265° West 337 388 19,500 -1,920 Descending Houston Center
01:51AM 30.0944 -89.1436 266° West 331 381 18,500 -1,740 Descending Houston Center
01:52AM 30.0903 -89.1775 262° West 325 374 17,800 -1,680 Descending Houston Center
01:52AM 30.0825 -89.2717 265° West 301 346 16,300 -1,680 Descending Houston Center
01:53AM 30.0756 -89.3633 265° West 288 331 14,800 -1,560 Descending Houston Center
01:54AM 30.0664 -89.4550 263° West 284 327 13,200 -1,500 Descending Houston Center
01:55AM 30.0592 -89.5442 265° West 281 323 11,800 -1,380 Descending Houston Center
01:56AM 30.0497 -89.6311 263° West 275 316 10,500 -1,380 Descending Houston Center
01:57AM 30.0531 -89.7247 272° West 272 313 9,000 -1,500 Descending Houston Center
01:58AM 30.0622 -89.8108 277° West 270 311 7,500 -1,560 Descending Houston Center
01:59AM 30.0714 -89.8969 277° West 267 307 5,900 -1,200 Descending Houston Center
02:00AM 30.0781 -89.9758 276° West 245 282 5,100 -1,080 Descending Houston Center
02:01AM 30.0803 -90.0456 272° West 212 244 3,800 -1,080 Descending Houston Center
02:03AM 30.0825 -90.1128 272° West 209 241 3,000 -480 Descending Houston Center
02:04AM 30.0867 -90.1797 274° West 213 245 2,900 -540 Descending Houston Center
02:05AM 30.0889 -90.2542 272° West 209 241 2,000 -480 Descending Houston Center
02:06AM 30.0889 -90.3239 270° West 205 236 2,000 -180 Level Houston Center
02:07AM 30.0439 -90.3519 208° Southwest 178 205 1,700 -660 Descending Houston Center
02:08AM 30.0075 -90.3294 152° Southeast 161 185 700 -1,020 Descending Houston Center